createdAt,value
2019-04-14T00:02:01.085Z,16.73
2019-04-14T00:04:35.453Z,16.03
2019-04-14T00:07:03.999Z,16.23
2019-04-14T00:09:33.641Z,16.17
2019-04-14T00:12:05.590Z,16.37
2019-04-14T00:14:33.677Z,16.50
2019-04-14T00:17:02.289Z,16.10
2019-04-14T00:19:30.767Z,17.73
2019-04-14T00:22:01.090Z,17.97
2019-04-14T00:24:29.605Z,18.77
2019-04-14T00:26:58.100Z,15.87
2019-04-14T00:29:26.636Z,16.30
2019-04-14T00:31:56.889Z,16.27
2019-04-14T00:34:46.347Z,17.10
2019-04-14T00:37:16.678Z,18.63
2019-04-14T00:39:46.829Z,17.50
2019-04-14T00:42:19.731Z,18.23
2019-04-14T00:44:49.736Z,17.47
2019-04-14T00:47:36.545Z,16.60
2019-04-14T00:50:06.234Z,18.97
2019-04-14T00:52:34.721Z,30.27
2019-04-14T00:55:03.366Z,18.10
2019-04-14T00:57:31.872Z,19.40
2019-04-14T01:00:00.256Z,17.00
2019-04-14T01:02:29.706Z,16.87
2019-04-14T01:04:58.328Z,18.27
2019-04-14T01:07:28.272Z,18.00
2019-04-14T01:09:57.537Z,17.10
2019-04-14T01:12:26.225Z,16.80
2019-04-14T01:14:55.920Z,18.10
2019-04-14T01:17:24.540Z,17.33
2019-04-14T01:19:52.971Z,17.30
2019-04-14T01:22:22.700Z,18.00
2019-04-14T01:24:51.541Z,16.37
2019-04-14T01:27:21.094Z,18.20
2019-04-14T01:29:49.608Z,17.23
2019-04-14T01:32:18.151Z,18.70
2019-04-14T01:34:47.608Z,19.70
2019-04-14T01:37:16.080Z,18.03
2019-04-14T01:39:44.457Z,18.50
2019-04-14T01:42:13.786Z,19.40
2019-04-14T01:44:42.277Z,19.00
2019-04-14T01:47:11.678Z,19.30
2019-04-14T01:49:40.162Z,18.43
2019-04-14T01:52:29.531Z,17.60
2019-04-14T01:55:15.761Z,20.70
2019-04-14T01:57:48.791Z,18.67
2019-04-14T02:00:22.749Z,21.80
2019-04-14T02:02:51.475Z,21.97
2019-04-14T02:05:21.424Z,17.33
2019-04-14T02:07:50.016Z,17.60
2019-04-14T02:10:19.434Z,19.80
2019-04-14T02:12:47.926Z,18.47
2019-04-14T02:15:17.904Z,18.27
2019-04-14T02:17:46.517Z,17.63
2019-04-14T02:20:16.361Z,18.40
2019-04-14T02:22:44.718Z,18.80
2019-04-14T02:25:14.176Z,18.27
2019-04-14T02:27:42.965Z,18.10
2019-04-14T02:30:17.352Z,18.60
2019-04-14T02:33:13.860Z,18.20
2019-04-14T02:35:51.637Z,18.17
2019-04-14T02:38:14.025Z,17.90
2019-04-14T02:40:49.175Z,17.10
2019-04-14T02:43:17.135Z,17.97
2019-04-14T02:45:46.780Z,18.63
2019-04-14T02:48:36.110Z,16.70
2019-04-14T02:50:40.290Z,17.67
2019-04-14T02:53:15.914Z,16.73
2019-04-14T02:55:44.804Z,18.03
2019-04-14T02:58:12.554Z,17.80
2019-04-14T03:00:42.061Z,18.53
2019-04-14T03:03:19.584Z,17.13
2019-04-14T03:05:47.840Z,18.10
2019-04-14T03:08:15.598Z,18.47
2019-04-14T03:10:43.896Z,17.73
2019-04-14T03:13:13.336Z,16.60
2019-04-14T03:21:03.913Z,18.07
2019-04-14T03:23:46.972Z,15.90
2019-04-14T03:26:11.658Z,16.80
2019-04-14T03:34:17.772Z,17.93
2019-04-14T03:36:58.266Z,17.93
2019-04-14T03:38:53.210Z,16.83
2019-04-14T03:41:25.904Z,18.23
2019-04-14T03:43:43.172Z,17.33
2019-04-14T03:46:36.177Z,18.30
2019-04-14T03:53:47.265Z,18.97
2019-04-14T03:56:02.328Z,19.00
2019-04-14T03:58:27.359Z,19.57
2019-04-14T04:00:55.919Z,17.27
2019-04-14T04:03:24.282Z,18.27
2019-04-14T04:05:52.754Z,17.77
2019-04-14T04:08:22.257Z,17.07
2019-04-14T04:10:53.260Z,17.70
2019-04-14T04:13:22.156Z,17.77
2019-04-14T04:15:51.883Z,17.73
2019-04-14T04:18:22.591Z,17.00
2019-04-14T04:20:52.783Z,17.00
2019-04-14T04:23:40.306Z,18.97
2019-04-14T04:26:27.845Z,17.93
2019-04-14T04:28:58.330Z,17.53
2019-04-14T04:31:28.678Z,18.17
2019-04-14T04:34:01.446Z,17.60
2019-04-14T04:36:35.337Z,17.47
2019-04-14T04:39:25.789Z,17.87
2019-04-14T04:41:54.341Z,18.00
2019-04-14T04:44:22.987Z,17.70
2019-04-14T04:46:52.627Z,17.80
2019-04-14T04:49:24.853Z,19.07
2019-04-14T04:51:51.366Z,19.03
2019-04-14T04:54:21.048Z,18.00
2019-04-14T04:56:49.524Z,18.70
2019-04-14T04:59:18.936Z,18.80
2019-04-14T05:01:47.617Z,20.27
2019-04-14T05:04:17.409Z,19.80
2019-04-14T05:06:57.448Z,18.73
2019-04-14T05:09:38.831Z,18.33
2019-04-14T05:12:09.467Z,18.00
2019-04-14T05:14:39.503Z,19.80
2019-04-14T05:17:08.095Z,17.73
2019-04-14T05:19:39.367Z,19.50
2019-04-14T05:22:07.061Z,18.20
2019-04-14T05:24:37.475Z,17.67
2019-04-14T05:27:06.001Z,17.30
2019-04-14T05:29:34.688Z,17.87
2019-04-14T05:32:04.414Z,17.83
2019-04-14T05:34:33.072Z,18.70
2019-04-14T05:37:01.435Z,17.27
2019-04-14T05:39:30.787Z,18.37
2019-04-14T05:42:06.730Z,17.70
2019-04-14T05:44:29.709Z,16.90
2019-04-14T05:46:58.472Z,17.47
2019-04-14T05:49:36.491Z,18.03
2019-04-14T05:51:56.959Z,18.63
2019-04-14T05:54:25.435Z,17.80
2019-04-14T05:56:53.905Z,18.47
2019-04-14T05:59:22.724Z,17.67
2019-04-14T06:01:51.171Z,17.87
2019-04-14T06:04:20.033Z,17.33
2019-04-14T06:06:48.592Z,16.90
2019-04-14T06:09:18.556Z,17.27
2019-04-14T06:11:46.968Z,16.73
2019-04-14T06:14:15.344Z,16.30
2019-04-14T06:16:44.003Z,17.40
2019-04-14T06:19:12.729Z,16.20
2019-04-14T06:21:41.235Z,14.93
2019-04-14T06:24:11.331Z,15.10
2019-04-14T06:26:39.797Z,14.53
2019-04-14T06:29:08.606Z,16.53
2019-04-14T06:31:50.554Z,13.60
2019-04-14T06:34:29.427Z,13.10
2019-04-14T06:36:59.512Z,14.10
2019-04-14T06:39:32.308Z,13.73
2019-04-14T06:42:00.917Z,14.27
2019-04-14T06:44:29.272Z,14.93
2019-04-14T06:46:57.755Z,14.30
2019-04-14T06:49:26.470Z,14.60
2019-04-14T06:51:54.917Z,14.60
2019-04-14T06:54:23.381Z,15.07
2019-04-14T06:56:51.842Z,14.23
2019-04-14T06:59:20.611Z,13.80
2019-04-14T07:01:49.104Z,14.27
2019-04-14T07:04:17.453Z,15.13
2019-04-14T07:06:45.866Z,14.23
2019-04-14T07:09:14.274Z,15.50
2019-04-14T07:11:42.744Z,15.07
2019-04-14T07:14:11.130Z,15.10
2019-04-14T07:16:39.901Z,15.73
2019-04-14T07:19:08.520Z,16.73
2019-04-14T07:21:37.586Z,16.07
2019-04-14T07:24:07.095Z,15.80
2019-04-14T07:26:35.549Z,16.27
2019-04-14T07:29:04.238Z,15.17
2019-04-14T07:31:46.059Z,16.80
2019-04-14T07:34:31.525Z,16.90
2019-04-14T07:37:19.110Z,16.60
2019-04-14T07:39:58.204Z,17.20
2019-04-14T07:42:32.296Z,16.47
2019-04-14T07:45:02.395Z,17.63
2019-04-14T07:47:35.329Z,16.87
2019-04-14T07:50:17.062Z,17.17
2019-04-14T07:52:47.239Z,18.43
2019-04-14T07:55:19.781Z,17.93
2019-04-14T07:58:02.068Z,17.73
2019-04-14T08:00:35.150Z,18.50
2019-04-14T08:03:08.008Z,19.20
2019-04-14T08:05:40.597Z,17.83
2019-04-14T08:08:09.336Z,17.70
2019-04-14T08:10:37.799Z,18.43
2019-04-14T08:13:06.300Z,18.40
2019-04-14T08:15:34.779Z,18.27
2019-04-14T08:18:03.284Z,17.73
2019-04-14T08:20:31.875Z,18.63
2019-04-14T08:23:00.426Z,18.30
2019-04-14T08:25:28.957Z,18.23
2019-04-14T08:27:57.714Z,19.40
2019-04-14T08:30:26.300Z,19.00
2019-04-14T08:32:54.976Z,18.90
2019-04-14T08:35:23.351Z,18.60
2019-04-14T08:37:52.153Z,18.00
2019-04-14T08:40:20.946Z,19.00
2019-04-14T08:42:57.109Z,20.00
2019-04-14T08:45:29.623Z,19.63
2019-04-14T08:48:15.826Z,20.67
2019-04-14T08:50:46.012Z,18.70
2019-04-14T08:53:18.825Z,19.10
2019-04-14T08:56:05.675Z,19.80
2019-04-14T08:58:51.894Z,19.00
2019-04-14T09:01:37.258Z,20.73
2019-04-14T09:04:23.740Z,19.73
2019-04-14T09:07:09.734Z,18.80
2019-04-14T09:09:39.886Z,20.80
2019-04-14T09:12:15.845Z,18.93
2019-04-14T09:14:55.924Z,18.80
2019-04-14T09:17:13.263Z,20.07
2019-04-14T09:19:42.012Z,20.93
2019-04-14T09:22:11.590Z,19.87
2019-04-14T09:24:40.036Z,19.50
2019-04-14T09:27:08.422Z,20.63
2019-04-14T09:29:37.072Z,19.63
2019-04-14T09:32:07.255Z,21.00
2019-04-14T09:34:35.846Z,20.97
2019-04-14T09:37:04.395Z,20.30
2019-04-14T09:39:32.839Z,20.03
2019-04-14T09:42:02.195Z,19.67
2019-04-14T09:44:30.724Z,20.40
2019-04-14T09:46:59.200Z,20.60
2019-04-14T09:49:27.725Z,20.27
2019-04-14T09:51:56.306Z,20.93
2019-04-14T09:54:26.302Z,22.03
2019-04-14T09:56:54.889Z,23.80
2019-04-14T09:59:23.693Z,21.00
2019-04-14T10:01:52.210Z,20.40
2019-04-14T10:04:20.818Z,20.90
2019-04-14T10:06:49.284Z,21.40
2019-04-14T10:09:17.810Z,20.23
2019-04-14T10:11:48.873Z,21.63
2019-04-14T10:14:16.527Z,20.70
2019-04-14T10:16:45.108Z,20.90
2019-04-14T10:19:14.143Z,20.10
2019-04-14T10:21:42.592Z,21.00
2019-04-14T10:24:11.056Z,20.40
2019-04-14T10:26:39.853Z,20.57
2019-04-14T10:29:08.267Z,19.63
2019-04-14T10:31:36.704Z,20.70
2019-04-14T10:34:05.341Z,30.93
2019-04-14T10:36:33.808Z,19.93
2019-04-14T10:39:02.303Z,19.87
2019-04-14T10:41:30.786Z,19.80
2019-04-14T10:43:59.378Z,20.20
2019-04-14T10:46:28.047Z,21.00
2019-04-14T10:48:56.521Z,20.80
2019-04-14T10:51:30.395Z,20.10
2019-04-14T10:53:55.515Z,20.83
2019-04-14T10:56:25.663Z,20.40
2019-04-14T10:58:54.417Z,19.10
2019-04-14T11:01:23.047Z,19.47
2019-04-14T11:03:51.916Z,20.47
2019-04-14T11:06:39.888Z,21.03
2019-04-14T11:09:10.366Z,20.80
2019-04-14T11:11:38.794Z,21.03
2019-04-14T11:14:07.938Z,21.13
2019-04-14T11:16:36.447Z,21.50
2019-04-14T11:19:05.538Z,21.97
2019-04-14T11:21:42.305Z,19.60
2019-04-14T11:24:07.399Z,21.10
2019-04-14T11:26:35.900Z,21.73
2019-04-14T11:29:04.671Z,20.30
2019-04-14T11:31:43.264Z,20.73
2019-04-14T11:34:13.513Z,20.50
2019-04-14T11:37:00.527Z,21.47
2019-04-14T11:39:29.061Z,19.70
2019-04-14T11:41:57.536Z,20.87
2019-04-14T11:44:27.168Z,21.10
2019-04-14T11:46:55.884Z,21.13
2019-04-14T11:49:24.459Z,19.33
2019-04-14T11:51:56.037Z,21.30
2019-04-14T11:54:24.678Z,20.37
2019-04-14T11:56:53.936Z,20.33
2019-04-14T11:59:25.312Z,20.37
2019-04-14T12:02:01.453Z,19.90
2019-04-14T12:04:31.635Z,21.30
2019-04-14T12:07:10.288Z,20.47
2019-04-14T12:09:42.892Z,19.63
2019-04-14T12:12:11.498Z,19.57
2019-04-14T12:14:40.365Z,20.07
2019-04-14T12:17:08.788Z,20.50
2019-04-14T12:19:37.305Z,19.70
2019-04-14T12:22:08.622Z,19.10
2019-04-14T12:24:36.516Z,20.13
2019-04-14T12:27:05.149Z,19.50
2019-04-14T12:29:34.803Z,19.20
2019-04-14T12:32:03.929Z,17.83
2019-04-14T12:34:32.795Z,19.03
2019-04-14T12:37:01.209Z,19.20
2019-04-14T12:39:29.708Z,19.23
2019-04-14T12:41:59.797Z,20.20
2019-04-14T12:44:48.636Z,18.60
2019-04-14T12:47:39.924Z,19.30
2019-04-14T12:50:17.909Z,17.87
2019-04-14T12:52:46.465Z,19.00
2019-04-14T12:55:15.511Z,18.93
2019-04-14T12:57:51.521Z,18.50
2019-04-14T13:00:21.687Z,18.97
2019-04-14T13:02:51.871Z,18.90
2019-04-14T13:05:20.489Z,19.50
2019-04-14T13:07:49.182Z,18.20
2019-04-14T13:10:21.487Z,18.30
2019-04-14T13:12:50.050Z,18.67
2019-04-14T13:15:18.869Z,18.67
2019-04-14T13:17:47.296Z,18.70
2019-04-14T13:20:16.162Z,18.20
2019-04-14T13:22:44.831Z,18.27
2019-04-14T13:25:13.373Z,19.00
2019-04-14T13:27:41.924Z,18.67
2019-04-14T13:30:12.551Z,19.83
2019-04-14T13:32:41.771Z,19.40
2019-04-14T13:35:10.425Z,18.80
2019-04-14T13:37:39.152Z,19.60
2019-04-14T13:40:07.966Z,20.30
2019-04-14T13:42:36.686Z,18.53
2019-04-14T13:45:06.591Z,19.77
2019-04-14T13:47:35.264Z,17.37
2019-04-14T13:50:07.505Z,18.50
2019-04-14T13:52:46.162Z,32.27
2019-04-14T13:55:07.463Z,19.00
2019-04-14T13:57:36.016Z,18.27
2019-04-14T14:00:08.163Z,18.40
2019-04-14T14:02:36.646Z,16.97
2019-04-14T14:05:05.958Z,16.83
2019-04-14T14:07:34.519Z,16.60
2019-04-14T14:10:03.949Z,17.10
2019-04-14T14:12:37.306Z,17.53
2019-04-14T14:15:09.126Z,18.43
2019-04-14T14:17:45.187Z,17.30
2019-04-14T14:20:18.804Z,16.97
2019-04-14T14:22:59.447Z,16.63
2019-04-14T14:25:30.038Z,16.17
2019-04-14T14:28:00.198Z,16.37
2019-04-14T14:30:29.074Z,16.90
2019-04-14T14:32:59.017Z,16.23
2019-04-14T14:35:27.792Z,16.60
2019-04-14T14:37:56.741Z,16.27
2019-04-14T14:40:25.276Z,15.97
2019-04-14T14:42:55.767Z,16.17
2019-04-14T14:45:25.709Z,17.00
2019-04-14T14:47:58.393Z,15.50
2019-04-14T14:50:35.507Z,15.93
2019-04-14T14:53:12.042Z,16.47
2019-04-14T14:55:36.222Z,16.50
2019-04-14T14:58:05.065Z,16.30
2019-04-14T15:00:34.454Z,16.10
2019-04-14T15:03:07.395Z,16.47
2019-04-14T15:05:34.868Z,17.60
2019-04-14T15:08:03.484Z,17.33
2019-04-14T15:10:35.352Z,17.50
2019-04-14T15:13:04.257Z,17.70
2019-04-14T15:15:32.810Z,16.37
2019-04-14T15:18:01.313Z,15.90
2019-04-14T15:20:29.756Z,17.00
2019-04-14T15:22:58.281Z,16.30
2019-04-14T15:25:27.069Z,16.80
2019-04-14T15:27:55.817Z,16.50
2019-04-14T15:30:25.283Z,17.40
2019-04-14T15:32:53.836Z,15.47
2019-04-14T15:35:22.510Z,16.50
2019-04-14T15:37:50.880Z,16.67
2019-04-14T15:40:21.093Z,16.83
2019-04-14T15:42:49.745Z,15.27
2019-04-14T15:45:18.259Z,17.73
2019-04-14T15:47:47.340Z,15.90
2019-04-14T15:50:15.871Z,16.10
2019-04-14T15:52:45.991Z,16.10
2019-04-14T15:55:15.825Z,15.53
2019-04-14T15:57:48.961Z,15.60
2019-04-14T16:00:34.246Z,15.53
2019-04-14T16:03:08.678Z,16.20
2019-04-14T16:05:50.963Z,16.10
2019-04-14T16:08:21.435Z,15.40
2019-04-14T16:10:54.995Z,15.60
2019-04-14T16:13:34.819Z,15.37
2019-04-14T16:16:20.184Z,15.57
2019-04-14T16:18:51.526Z,15.87
2019-04-14T16:21:20.189Z,15.73
2019-04-14T16:23:50.812Z,15.00
2019-04-14T16:26:23.783Z,16.03
2019-04-14T16:28:56.974Z,20.73
2019-04-14T16:32:36.648Z,16.10
2019-04-14T16:35:22.914Z,16.37
2019-04-14T16:37:52.336Z,16.23
2019-04-14T16:40:23.060Z,16.23
2019-04-14T16:42:52.722Z,16.10
2019-04-14T16:45:21.912Z,16.70
2019-04-14T16:47:50.421Z,15.80
2019-04-14T16:50:19.069Z,17.00
2019-04-14T16:53:04.303Z,15.47
2019-04-14T16:55:43.439Z,16.23
2019-04-14T16:58:25.898Z,16.30
2019-04-14T17:00:56.885Z,15.50
2019-04-14T17:03:27.206Z,17.00
2019-04-14T17:05:56.037Z,16.43
2019-04-14T17:08:26.112Z,16.07
2019-04-14T17:10:54.636Z,17.63
2019-04-14T17:13:25.568Z,16.40
2019-04-14T17:15:55.792Z,16.97
2019-04-14T17:18:42.261Z,15.87
2019-04-14T17:21:27.566Z,17.37
2019-04-14T17:23:57.815Z,15.93
2019-04-14T17:26:36.869Z,15.73
2019-04-14T17:29:12.844Z,15.90
2019-04-14T17:31:58.333Z,16.30
2019-04-14T17:34:28.596Z,16.10
2019-04-14T17:37:05.019Z,17.90
2019-04-14T17:39:51.831Z,16.13
2019-04-14T17:42:31.012Z,16.00
2019-04-14T17:45:04.754Z,15.73
2019-04-14T17:47:47.744Z,15.87
2019-04-14T17:50:23.990Z,15.33
2019-04-14T17:53:08.602Z,15.83
2019-04-14T17:55:49.426Z,15.93
2019-04-14T17:58:10.615Z,15.00
2019-04-14T18:00:44.308Z,15.87
2019-04-14T18:03:30.776Z,15.40
2019-04-14T18:06:03.548Z,15.40
2019-04-14T18:08:33.678Z,15.73
2019-04-14T18:11:18.790Z,15.80
2019-04-14T18:13:51.735Z,16.90
2019-04-14T18:16:27.649Z,18.37
2019-04-14T18:19:10.042Z,16.70
2019-04-14T18:21:38.612Z,15.63
2019-04-14T18:24:07.432Z,15.33
2019-04-14T18:26:36.352Z,16.20
2019-04-14T18:29:22.741Z,15.40
2019-04-14T18:31:52.748Z,15.67
2019-04-14T18:37:34.155Z,15.93
2019-04-14T18:40:04.305Z,15.40
2019-04-14T18:42:43.077Z,15.03
2019-04-14T18:45:22.295Z,14.87
2019-04-14T18:48:07.594Z,14.70
2019-04-14T18:50:40.640Z,14.30
2019-04-14T18:53:13.838Z,14.23
2019-04-14T18:55:43.841Z,15.13
2019-04-14T18:58:30.207Z,14.37
2019-04-14T19:01:00.321Z,13.80
2019-04-14T19:03:28.703Z,13.70
2019-04-14T19:05:57.102Z,13.90
2019-04-14T19:08:25.566Z,12.80
2019-04-14T19:11:13.972Z,14.50
2019-04-14T19:13:43.983Z,13.90
2019-04-14T19:16:23.266Z,13.23
2019-04-14T19:18:53.344Z,13.53
2019-04-14T19:21:23.519Z,12.70
2019-04-14T19:23:52.292Z,13.43
2019-04-14T19:26:20.842Z,13.00
2019-04-14T19:28:49.672Z,13.13
2019-04-14T19:31:18.145Z,12.47
2019-04-14T19:33:46.565Z,12.47
2019-04-14T19:36:15.031Z,13.47
2019-04-14T19:38:43.505Z,12.40
2019-04-14T19:41:11.934Z,15.50
2019-04-14T19:43:42.641Z,20.40
2019-04-14T19:46:11.080Z,12.40
2019-04-14T19:48:41.736Z,13.17
2019-04-14T19:51:10.281Z,15.40
2019-04-14T19:53:38.674Z,19.93
2019-04-14T19:56:07.058Z,12.07
2019-04-14T19:58:35.563Z,12.10
2019-04-14T20:01:07.091Z,12.30
2019-04-14T20:03:35.000Z,12.50
2019-04-14T20:06:05.007Z,11.70
2019-04-14T20:08:33.460Z,12.57
2019-04-14T20:11:01.942Z,12.27
2019-04-14T20:13:31.946Z,12.70
2019-04-14T20:16:08.170Z,12.63
2019-04-14T20:18:38.350Z,12.00
2019-04-14T20:21:10.179Z,11.40
2019-04-14T20:23:51.666Z,11.40
2019-04-14T20:26:32.516Z,12.07
2019-04-14T20:29:05.421Z,11.90
2019-04-14T20:31:41.502Z,12.87
2019-04-14T20:34:09.979Z,12.00
2019-04-14T20:36:38.613Z,12.70
2019-04-14T20:39:09.885Z,12.77
2019-04-14T20:41:38.565Z,20.03
2019-04-14T20:44:07.110Z,21.47
2019-04-14T20:46:35.464Z,13.30
2019-04-14T20:49:04.249Z,11.73
2019-04-14T20:51:32.784Z,12.60
2019-04-14T20:54:01.247Z,12.80
2019-04-14T20:56:29.699Z,11.27
2019-04-14T20:58:58.239Z,13.60
2019-04-14T21:01:28.306Z,12.67
2019-04-14T21:04:01.401Z,13.00
2019-04-14T21:06:48.137Z,11.83
2019-04-14T21:09:27.130Z,12.97
2019-04-14T21:12:00.256Z,11.70
2019-04-14T21:14:36.038Z,12.30
2019-04-14T21:17:09.082Z,11.70
2019-04-14T21:19:58.434Z,10.73
2019-04-14T21:22:40.386Z,12.17
2019-04-14T21:25:22.598Z,11.30
2019-04-14T21:28:02.314Z,12.70
2019-04-14T21:30:44.829Z,15.67
2019-04-14T21:33:14.865Z,20.53
2019-04-14T21:35:47.411Z,12.57
2019-04-14T21:38:26.589Z,11.47
2019-04-14T21:41:08.281Z,12.27
2019-04-14T21:43:36.775Z,11.40
2019-04-14T21:46:05.281Z,11.90
2019-04-14T21:48:33.736Z,12.00
2019-04-14T21:51:02.192Z,12.17
2019-04-14T21:53:31.072Z,12.40
2019-04-14T21:56:12.465Z,12.27
2019-04-14T21:58:37.122Z,12.00
2019-04-14T22:01:38.778Z,12.10
2019-04-14T22:04:08.987Z,12.77
2019-04-14T22:06:41.624Z,11.90
2019-04-14T22:09:11.941Z,11.90
2019-04-14T22:11:40.361Z,12.13
2019-04-14T22:14:08.833Z,12.10
2019-04-14T22:16:37.248Z,13.73
2019-04-14T22:19:05.747Z,15.53
2019-04-14T22:21:34.211Z,11.30
2019-04-14T22:24:02.750Z,12.07
2019-04-14T22:26:31.138Z,12.43
2019-04-14T22:29:02.309Z,12.07
2019-04-14T22:31:30.118Z,12.40
2019-04-14T22:33:58.614Z,12.40
2019-04-14T22:36:27.106Z,11.80
2019-04-14T22:38:55.462Z,12.63
2019-04-14T22:41:23.909Z,13.83
2019-04-14T22:43:52.307Z,12.57
2019-04-14T22:46:21.013Z,12.90
2019-04-14T22:48:49.512Z,11.93
2019-04-14T22:51:18.002Z,12.77
2019-04-14T22:53:46.715Z,12.90
2019-04-14T22:56:15.456Z,12.80
2019-04-14T22:58:43.925Z,12.30
2019-04-14T23:01:17.338Z,11.80
2019-04-14T23:03:52.922Z,11.70
2019-04-14T23:06:32.117Z,12.30
2019-04-14T23:09:07.692Z,12.27
2019-04-14T23:11:46.169Z,12.50
2019-04-14T23:14:25.390Z,12.37
2019-04-14T23:17:11.665Z,13.53
2019-04-14T23:19:50.217Z,15.87
2019-04-14T23:22:38.440Z,12.90
2019-04-14T23:25:07.379Z,13.07
2019-04-14T23:27:35.813Z,12.30
2019-04-14T23:30:05.898Z,12.40
2019-04-14T23:32:34.265Z,13.57
2019-04-14T23:35:02.842Z,12.67
2019-04-14T23:37:31.278Z,12.20
2019-04-14T23:39:59.672Z,12.30
2019-04-14T23:42:28.523Z,12.53
2019-04-14T23:44:56.904Z,12.97
2019-04-14T23:47:25.431Z,12.17
2019-04-14T23:49:53.923Z,11.77
2019-04-14T23:52:22.441Z,12.40
2019-04-14T23:54:50.870Z,12.67
2019-04-14T23:57:19.386Z,13.20
2019-04-14T23:59:47.739Z,12.20
